createdAt,value
2019-03-23T00:00:38.300Z,11.72
2019-03-23T00:03:09.958Z,11.68
2019-03-23T00:05:42.492Z,11.75
2019-03-23T00:08:13.979Z,11.80
2019-03-23T00:10:45.408Z,11.72
2019-03-23T00:13:17.050Z,11.72
2019-03-23T00:15:48.701Z,11.82
2019-03-23T00:18:20.231Z,11.78
2019-03-23T00:20:51.794Z,11.83
2019-03-23T00:23:23.522Z,11.62
2019-03-23T00:25:55.024Z,11.54
2019-03-23T00:28:27.813Z,11.54
2019-03-23T00:30:59.263Z,11.54
2019-03-23T00:33:30.742Z,11.39
2019-03-23T00:36:02.437Z,11.31
2019-03-23T00:38:33.902Z,11.43
2019-03-23T00:41:05.447Z,11.26
2019-03-23T00:43:37.926Z,11.00
2019-03-23T00:46:09.366Z,11.03
2019-03-23T00:48:41.455Z,10.91
2019-03-23T00:51:14.868Z,10.86
2019-03-23T00:53:47.235Z,11.01
2019-03-23T00:56:18.870Z,10.94
2019-03-23T00:58:50.472Z,11.00
2019-03-23T01:01:22.948Z,10.82
2019-03-23T01:03:54.402Z,10.97
2019-03-23T01:06:25.928Z,10.94
2019-03-23T01:08:57.456Z,10.91
2019-03-23T01:11:29.341Z,10.93
2019-03-23T01:14:00.884Z,10.88
2019-03-23T01:16:32.416Z,10.93
2019-03-23T01:19:04.278Z,10.87
2019-03-23T01:21:35.796Z,10.75
2019-03-23T01:24:07.382Z,10.86
2019-03-23T01:26:39.109Z,10.94
2019-03-23T01:29:10.545Z,10.94
2019-03-23T01:31:42.718Z,11.05
2019-03-23T01:34:14.172Z,10.80
2019-03-23T01:36:45.625Z,10.88
2019-03-23T01:39:17.190Z,10.65
2019-03-23T01:41:48.769Z,10.78
2019-03-23T01:44:21.327Z,10.71
2019-03-23T01:46:52.772Z,10.60
2019-03-23T01:49:24.909Z,10.50
2019-03-23T01:51:56.388Z,10.43
2019-03-23T01:54:27.917Z,10.53
2019-03-23T01:56:59.371Z,10.60
2019-03-23T01:59:31.375Z,10.57
2019-03-23T02:02:03.225Z,10.52
2019-03-23T02:04:34.910Z,10.63
2019-03-23T02:07:13.780Z,10.54
2019-03-23T02:09:39.776Z,10.50
2019-03-23T02:12:11.318Z,10.51
2019-03-23T02:14:42.750Z,10.48
2019-03-23T02:17:14.250Z,10.45
2019-03-23T02:19:46.045Z,10.41
2019-03-23T02:22:17.562Z,10.38
2019-03-23T02:24:49.323Z,10.40
2019-03-23T02:27:21.232Z,10.57
2019-03-23T02:29:53.067Z,10.40
2019-03-23T02:32:24.983Z,10.44
2019-03-23T02:34:56.862Z,10.30
2019-03-23T02:37:28.458Z,10.51
2019-03-23T02:40:00.573Z,10.38
2019-03-23T02:42:32.024Z,10.32
2019-03-23T02:45:03.721Z,10.26
2019-03-23T02:47:35.317Z,10.45
2019-03-23T02:50:07.077Z,10.62
2019-03-23T02:52:38.899Z,10.39
2019-03-23T02:55:11.183Z,10.05
2019-03-23T02:57:42.704Z,9.84
2019-03-23T03:00:14.409Z,10.09
2019-03-23T03:02:46.187Z,10.04
2019-03-23T03:05:17.779Z,9.92
2019-03-23T03:07:49.323Z,9.99
2019-03-23T03:10:51.847Z,9.94
2019-03-23T03:13:23.944Z,9.81
2019-03-23T03:15:55.506Z,9.57
2019-03-23T03:18:27.469Z,9.75
2019-03-23T03:20:59.969Z,9.75
2019-03-23T03:23:31.688Z,9.82
2019-03-23T03:26:03.443Z,9.37
2019-03-23T03:28:34.960Z,9.29
2019-03-23T03:31:06.905Z,9.19
2019-03-23T03:33:38.328Z,9.45
2019-03-23T03:36:09.823Z,9.38
2019-03-23T03:38:41.251Z,9.58
2019-03-23T03:43:42.343Z,9.82
2019-03-23T03:46:13.901Z,9.93
2019-03-23T03:48:45.759Z,9.95
2019-03-23T03:51:17.191Z,9.88
2019-03-23T03:53:48.612Z,10.00
2019-03-23T03:56:20.251Z,10.02
2019-03-23T03:58:52.853Z,10.15
2019-03-23T04:01:24.456Z,10.07
2019-03-23T04:03:56.081Z,10.09
2019-03-23T04:06:27.953Z,9.95
2019-03-23T04:08:59.662Z,9.84
2019-03-23T04:11:31.364Z,9.88
2019-03-23T04:14:03.258Z,9.60
2019-03-23T04:16:34.952Z,9.40
2019-03-23T04:19:06.640Z,9.18
2019-03-23T04:21:38.035Z,8.92
2019-03-23T04:24:10.541Z,8.87
2019-03-23T04:26:42.333Z,8.85
2019-03-23T04:29:13.814Z,8.82
2019-03-23T04:31:46.943Z,9.17
2019-03-23T04:34:18.346Z,8.84
2019-03-23T04:36:50.032Z,8.79
2019-03-23T04:39:21.484Z,8.64
2019-03-23T04:41:52.887Z,8.93
2019-03-23T04:44:25.953Z,8.93
2019-03-23T04:46:57.674Z,8.81
2019-03-23T04:49:30.004Z,8.50
2019-03-23T04:52:01.659Z,8.58
2019-03-23T04:54:33.140Z,8.26
2019-03-23T04:57:04.713Z,8.22
2019-03-23T04:59:36.496Z,8.28
2019-03-23T05:02:07.926Z,8.32
2019-03-23T05:04:39.406Z,8.24
2019-03-23T05:07:10.991Z,8.27
2019-03-23T05:09:43.389Z,8.30
2019-03-23T05:12:15.084Z,8.54
2019-03-23T05:14:47.139Z,8.72
2019-03-23T05:17:18.572Z,8.75
2019-03-23T05:19:49.990Z,8.82
2019-03-23T05:22:21.462Z,8.86
2019-03-23T05:24:53.164Z,8.98
2019-03-23T05:27:25.004Z,9.11
2019-03-23T05:29:57.321Z,9.18
2019-03-23T05:32:29.177Z,9.24
2019-03-23T05:35:00.675Z,9.37
2019-03-23T05:37:32.548Z,9.32
2019-03-23T05:40:06.233Z,9.31
2019-03-23T05:42:37.419Z,9.33
2019-03-23T05:45:09.022Z,9.50
2019-03-23T05:47:40.545Z,9.58
2019-03-23T05:50:12.207Z,9.55
2019-03-23T05:52:44.577Z,9.41
2019-03-23T05:55:16.110Z,9.32
2019-03-23T05:57:48.274Z,9.26
2019-03-23T06:00:21.075Z,9.39
2019-03-23T06:02:52.488Z,9.41
2019-03-23T06:05:24.792Z,9.47
2019-03-23T06:07:56.338Z,9.54
2019-03-23T06:10:27.763Z,9.58
2019-03-23T06:12:59.516Z,9.53
2019-03-23T06:15:30.930Z,9.71
2019-03-23T06:18:02.327Z,9.47
2019-03-23T06:20:34.003Z,9.56
2019-03-23T06:23:05.629Z,9.64
2019-03-23T06:25:37.255Z,9.59
2019-03-23T06:28:08.958Z,9.55
2019-03-23T06:30:41.296Z,9.57
2019-03-23T06:33:12.858Z,9.66
2019-03-23T06:35:44.441Z,9.37
2019-03-23T06:38:16.455Z,9.28
2019-03-23T06:40:48.706Z,9.23
2019-03-23T06:43:21.569Z,9.29
2019-03-23T06:49:24.059Z,9.27
2019-03-23T06:51:55.716Z,9.16
2019-03-23T06:54:27.142Z,9.13
2019-03-23T06:56:58.656Z,9.03
2019-03-23T06:59:30.103Z,8.97
2019-03-23T07:02:01.746Z,8.92
2019-03-23T07:04:33.463Z,8.41
2019-03-23T07:07:04.995Z,8.27
2019-03-23T07:09:36.417Z,8.19
2019-03-23T07:12:07.814Z,8.34
2019-03-23T07:14:39.670Z,8.30
2019-03-23T07:17:11.102Z,8.23
2019-03-23T07:19:43.888Z,8.24
2019-03-23T07:22:15.299Z,8.35
2019-03-23T07:24:46.717Z,8.36
2019-03-23T07:27:19.494Z,8.47
2019-03-23T07:29:50.992Z,8.35
2019-03-23T07:32:22.419Z,8.46
2019-03-23T07:34:53.873Z,8.40
2019-03-23T07:37:25.342Z,8.45
2019-03-23T07:39:57.054Z,8.49
2019-03-23T07:42:29.631Z,8.56
2019-03-23T07:45:01.064Z,8.66
2019-03-23T07:47:32.617Z,8.53
2019-03-23T07:50:04.614Z,8.51
2019-03-23T07:52:36.132Z,8.30
2019-03-23T07:55:15.494Z,8.43
2019-03-23T07:57:48.420Z,8.46
2019-03-23T08:00:20.109Z,8.35
2019-03-23T08:02:52.062Z,8.30
2019-03-23T08:05:23.734Z,8.34
2019-03-23T08:07:55.142Z,8.44
2019-03-23T08:10:31.365Z,8.37
2019-03-23T08:13:03.447Z,8.51
2019-03-23T08:15:35.133Z,8.35
2019-03-23T08:18:07.033Z,8.31
2019-03-23T08:20:38.881Z,8.28
2019-03-23T08:23:10.331Z,8.20
2019-03-23T08:25:42.005Z,8.14
2019-03-23T08:28:13.503Z,8.32
2019-03-23T08:30:45.224Z,8.11
2019-03-23T08:33:18.262Z,7.80
2019-03-23T08:35:49.718Z,7.75
2019-03-23T08:38:22.431Z,7.84
2019-03-23T08:40:54.088Z,7.72
2019-03-23T08:43:27.383Z,7.77
2019-03-23T08:46:02.997Z,7.65
2019-03-23T08:48:34.693Z,7.52
2019-03-23T08:51:06.356Z,7.54
2019-03-23T08:53:38.372Z,7.68
2019-03-23T08:56:13.885Z,7.76
2019-03-23T08:58:44.686Z,7.84
2019-03-23T09:01:16.528Z,7.94
2019-03-23T09:03:52.346Z,7.75
2019-03-23T09:06:21.230Z,7.54
2019-03-23T09:08:52.624Z,7.51
2019-03-23T09:11:25.096Z,7.67
2019-03-23T09:13:56.505Z,7.76
2019-03-23T09:16:27.998Z,7.69
2019-03-23T09:18:59.665Z,7.65
2019-03-23T09:21:31.407Z,7.68
2019-03-23T09:24:03.026Z,7.64
2019-03-23T09:26:35.527Z,7.60
2019-03-23T09:29:07.226Z,7.76
2019-03-23T09:31:38.782Z,7.75
2019-03-23T09:34:11.520Z,7.83
2019-03-23T09:36:43.529Z,7.69
2019-03-23T09:39:15.255Z,7.98
2019-03-23T09:41:46.671Z,7.95
2019-03-23T09:44:18.401Z,7.91
2019-03-23T09:46:49.849Z,7.93
2019-03-23T09:49:22.155Z,7.80
2019-03-23T09:51:53.845Z,7.78
2019-03-23T09:54:25.498Z,8.03
2019-03-23T09:56:56.888Z,8.18
2019-03-23T09:59:29.212Z,8.02
2019-03-23T10:02:01.835Z,7.88
2019-03-23T10:04:33.123Z,7.86
2019-03-23T10:07:04.498Z,7.96
2019-03-23T10:09:35.844Z,7.79
2019-03-23T10:12:07.231Z,8.13
2019-03-23T10:14:39.667Z,8.14
2019-03-23T10:17:11.167Z,7.97
2019-03-23T10:19:42.840Z,8.09
2019-03-23T10:22:14.387Z,8.03
2019-03-23T10:24:45.787Z,7.97
2019-03-23T10:27:17.154Z,7.80
2019-03-23T10:29:48.899Z,7.70
2019-03-23T10:32:20.343Z,7.74
2019-03-23T10:34:51.768Z,7.84
2019-03-23T10:37:26.013Z,7.89
2019-03-23T10:39:57.146Z,7.72
2019-03-23T10:42:28.565Z,7.78
2019-03-23T10:44:59.999Z,8.00
2019-03-23T10:47:31.683Z,7.68
2019-03-23T10:50:03.081Z,7.73
2019-03-23T10:52:34.462Z,8.03
2019-03-23T10:55:05.999Z,7.94
2019-03-23T10:57:37.362Z,7.90
2019-03-23T11:00:09.492Z,8.00
2019-03-23T11:02:42.263Z,8.20
2019-03-23T11:05:13.994Z,8.14
2019-03-23T11:07:45.350Z,8.27
2019-03-23T11:10:16.752Z,8.25
2019-03-23T11:12:48.149Z,8.32
2019-03-23T11:15:19.620Z,8.25
2019-03-23T11:17:51.362Z,8.43
2019-03-23T11:20:22.735Z,8.41
2019-03-23T11:22:54.389Z,8.47
2019-03-23T11:25:26.247Z,8.44
2019-03-23T11:27:59.222Z,8.37
2019-03-23T11:30:30.946Z,8.31
2019-03-23T11:33:02.357Z,8.47
2019-03-23T11:35:33.967Z,8.27
2019-03-23T11:38:05.758Z,8.38
2019-03-23T11:40:37.480Z,8.50
2019-03-23T11:43:09.198Z,8.61
2019-03-23T11:45:40.619Z,8.52
2019-03-23T11:48:13.304Z,8.60
2019-03-23T11:50:44.696Z,8.45
2019-03-23T11:53:16.079Z,8.68
2019-03-23T11:55:47.835Z,8.80
2019-03-23T11:58:19.268Z,9.06
2019-03-23T12:00:51.035Z,8.80
2019-03-23T12:03:22.476Z,8.55
2019-03-23T12:05:53.866Z,8.44
2019-03-23T12:08:28.228Z,8.50
2019-03-23T12:11:03.045Z,8.42
2019-03-23T12:13:32.915Z,8.36
2019-03-23T12:16:04.504Z,8.47
2019-03-23T12:18:35.996Z,8.71
2019-03-23T12:21:07.756Z,8.82
2019-03-23T12:23:39.458Z,8.87
2019-03-23T12:26:10.820Z,8.92
2019-03-23T12:28:42.523Z,9.03
2019-03-23T12:31:14.235Z,9.15
2019-03-23T12:33:45.641Z,8.85
2019-03-23T12:36:17.688Z,8.93
2019-03-23T12:38:49.352Z,9.13
2019-03-23T12:41:23.390Z,9.39
2019-03-23T12:43:54.114Z,9.20
2019-03-23T12:46:25.958Z,9.51
2019-03-23T12:48:57.624Z,9.59
2019-03-23T12:51:29.038Z,10.03
2019-03-23T12:54:00.524Z,9.77
2019-03-23T12:56:31.919Z,9.97
2019-03-23T12:59:03.570Z,9.79
2019-03-23T13:01:35.252Z,9.95
2019-03-23T13:04:06.920Z,10.00
2019-03-23T13:06:38.334Z,10.02
2019-03-23T13:09:10.069Z,10.09
2019-03-23T13:11:41.538Z,10.41
2019-03-23T13:14:13.410Z,10.32
2019-03-23T13:16:44.880Z,10.29
2019-03-23T13:19:16.367Z,10.54
2019-03-23T13:21:47.793Z,10.88
2019-03-23T13:24:19.484Z,10.68
2019-03-23T13:26:50.859Z,10.72
2019-03-23T13:29:22.241Z,10.27
2019-03-23T13:31:53.735Z,10.48
2019-03-23T13:34:25.399Z,10.46
2019-03-23T13:36:56.867Z,10.60
2019-03-23T13:39:28.583Z,10.83
2019-03-23T13:42:00.322Z,11.10
2019-03-23T13:44:31.994Z,11.10
2019-03-23T13:47:03.692Z,11.22
2019-03-23T13:49:35.077Z,11.45
2019-03-23T13:52:06.656Z,11.67
2019-03-23T13:54:38.058Z,12.03
2019-03-23T13:57:10.519Z,11.93
2019-03-23T13:59:41.885Z,11.91
2019-03-23T14:02:13.565Z,12.26
2019-03-23T14:04:44.943Z,12.38
2019-03-23T14:07:16.372Z,12.19
2019-03-23T14:09:48.067Z,12.25
2019-03-23T14:12:19.483Z,12.41
2019-03-23T14:14:50.946Z,12.41
2019-03-23T14:17:23.391Z,11.55
2019-03-23T14:19:55.676Z,11.45
2019-03-23T14:22:27.127Z,11.48
2019-03-23T14:24:58.555Z,12.31
2019-03-23T14:27:30.427Z,12.26
2019-03-23T14:30:01.821Z,11.97
2019-03-23T14:32:33.475Z,12.09
2019-03-23T14:35:05.808Z,12.26
2019-03-23T14:37:37.578Z,12.58
2019-03-23T14:40:09.318Z,12.68
2019-03-23T14:42:40.739Z,12.01
2019-03-23T14:45:12.213Z,11.88
2019-03-23T14:47:43.612Z,11.94
2019-03-23T14:50:15.349Z,11.78
2019-03-23T14:52:46.720Z,11.89
2019-03-23T14:55:18.108Z,11.93
2019-03-23T14:57:51.566Z,11.70
2019-03-23T15:00:30.395Z,11.22
2019-03-23T15:03:01.796Z,11.11
2019-03-23T15:05:34.752Z,11.50
2019-03-23T15:08:06.130Z,11.65
2019-03-23T15:10:38.274Z,11.40
2019-03-23T15:13:09.631Z,11.52
2019-03-23T15:15:41.284Z,11.62
2019-03-23T15:18:13.139Z,11.57
2019-03-23T15:20:44.940Z,11.60
2019-03-23T15:23:16.329Z,11.68
2019-03-23T15:25:47.799Z,11.50
2019-03-23T15:28:19.478Z,11.39
2019-03-23T15:30:50.960Z,11.32
2019-03-23T15:33:22.579Z,11.27
2019-03-23T15:35:54.058Z,11.21
2019-03-23T15:38:26.835Z,11.37
2019-03-23T15:40:59.070Z,11.34
2019-03-23T15:43:30.451Z,11.19
2019-03-23T15:46:02.408Z,11.36
2019-03-23T15:48:33.902Z,11.31
2019-03-23T15:51:05.723Z,11.23
2019-03-23T15:53:37.683Z,11.46
2019-03-23T15:56:10.623Z,11.78
2019-03-23T15:58:42.491Z,11.73
2019-03-23T16:01:15.333Z,11.78
2019-03-23T16:03:47.189Z,11.71
2019-03-23T16:06:19.436Z,11.64
2019-03-23T16:08:50.855Z,11.63
2019-03-23T16:11:22.514Z,11.52
2019-03-23T16:13:54.352Z,11.79
2019-03-23T16:16:25.999Z,11.69
2019-03-23T16:18:57.720Z,11.45
2019-03-23T16:21:29.097Z,11.40
2019-03-23T16:24:00.465Z,11.39
2019-03-23T16:26:31.878Z,11.35
2019-03-23T16:29:03.280Z,11.30
2019-03-23T16:31:34.668Z,11.35
2019-03-23T16:34:06.366Z,11.32
2019-03-23T16:36:38.257Z,11.19
2019-03-23T16:39:10.300Z,11.14
2019-03-23T16:41:41.674Z,11.16
2019-03-23T16:44:13.165Z,11.23
2019-03-23T16:46:44.589Z,11.35
2019-03-23T16:49:15.977Z,11.27
2019-03-23T16:51:47.876Z,11.16
2019-03-23T16:54:19.243Z,11.18
2019-03-23T16:56:50.650Z,11.18
2019-03-23T16:59:22.024Z,11.09
2019-03-23T17:01:53.904Z,11.26
2019-03-23T17:04:25.641Z,11.03
2019-03-23T17:06:57.086Z,11.01
2019-03-23T17:09:29.105Z,11.06
2019-03-23T17:12:00.577Z,10.94
2019-03-23T17:14:31.969Z,10.94
2019-03-23T17:17:03.393Z,10.92
2019-03-23T17:19:35.795Z,10.93
2019-03-23T17:22:07.218Z,10.98
2019-03-23T17:24:38.679Z,10.99
2019-03-23T17:27:10.973Z,10.93
2019-03-23T17:29:42.825Z,10.86
2019-03-23T17:32:14.501Z,10.87
2019-03-23T17:34:45.860Z,10.84
2019-03-23T17:37:17.254Z,10.88
2019-03-23T17:39:48.614Z,10.89
2019-03-23T17:42:20.108Z,10.86
2019-03-23T17:44:52.176Z,10.90
2019-03-23T17:47:23.653Z,10.88
2019-03-23T17:49:57.268Z,10.93
2019-03-23T17:52:29.026Z,10.89
2019-03-23T17:55:00.825Z,10.93
2019-03-23T17:57:33.930Z,10.99
2019-03-23T18:00:06.869Z,10.99
2019-03-23T18:02:39.510Z,11.06
2019-03-23T18:05:12.413Z,10.86
2019-03-23T18:07:43.835Z,10.80
2019-03-23T18:10:15.480Z,10.83
2019-03-23T18:12:46.937Z,10.87
2019-03-23T18:15:18.712Z,10.78
2019-03-23T18:17:51.261Z,10.77
2019-03-23T18:20:22.777Z,10.82
2019-03-23T18:22:55.510Z,10.87
2019-03-23T18:25:27.007Z,10.74
2019-03-23T18:27:58.755Z,10.79
2019-03-23T18:30:35.944Z,10.78
2019-03-23T18:33:07.429Z,10.80
2019-03-23T18:35:39.028Z,10.81
2019-03-23T18:38:10.421Z,10.62
2019-03-23T18:40:41.924Z,10.47
2019-03-23T18:43:26.713Z,10.31
2019-03-23T18:45:50.682Z,10.32
2019-03-23T18:48:22.445Z,10.32
2019-03-23T18:50:54.381Z,10.19
2019-03-23T18:53:26.062Z,10.19
2019-03-23T18:55:57.453Z,10.27
2019-03-23T18:58:28.863Z,10.06
2019-03-23T19:01:00.241Z,9.98
2019-03-23T19:03:32.143Z,10.07
2019-03-23T19:06:03.583Z,9.97
2019-03-23T19:08:35.945Z,9.98
2019-03-23T19:11:07.589Z,9.95
2019-03-23T19:13:39.079Z,9.88
2019-03-23T19:16:10.466Z,9.96
2019-03-23T19:18:42.387Z,10.01
2019-03-23T19:21:14.798Z,10.02
2019-03-23T19:23:46.567Z,9.92
2019-03-23T19:26:18.619Z,9.94
2019-03-23T19:28:49.997Z,9.96
2019-03-23T19:31:21.581Z,9.96
2019-03-23T19:33:52.952Z,9.93
2019-03-23T19:36:24.454Z,9.83
2019-03-23T19:38:56.002Z,9.81
2019-03-23T19:41:28.367Z,9.77
2019-03-23T19:43:59.859Z,9.72
2019-03-23T19:46:31.246Z,9.78
2019-03-23T19:49:03.957Z,9.71
2019-03-23T19:51:35.617Z,9.88
2019-03-23T19:54:07.336Z,9.78
2019-03-23T19:56:39.149Z,9.71
2019-03-23T19:59:10.564Z,9.74
2019-03-23T20:01:41.917Z,9.65
2019-03-23T20:04:13.427Z,9.77
2019-03-23T20:06:45.147Z,9.77
2019-03-23T20:09:16.561Z,9.84
2019-03-23T20:11:48.156Z,9.92
2019-03-23T20:14:19.785Z,9.72
2019-03-23T20:16:51.400Z,9.63
2019-03-23T20:19:23.096Z,9.71
2019-03-23T20:21:54.659Z,9.59
2019-03-23T20:24:26.297Z,9.51
2019-03-23T20:26:58.247Z,9.50
2019-03-23T20:29:29.901Z,9.49
2019-03-23T20:32:01.495Z,9.52
2019-03-23T20:34:33.240Z,9.41
2019-03-23T20:37:05.237Z,9.38
2019-03-23T20:39:36.731Z,9.41
2019-03-23T20:42:08.084Z,9.51
2019-03-23T20:44:39.787Z,9.36
2019-03-23T20:47:11.720Z,9.36
2019-03-23T20:49:43.902Z,9.44
2019-03-23T20:52:15.949Z,9.41
2019-03-23T20:54:47.889Z,9.44
2019-03-23T20:57:23.745Z,9.45
2019-03-23T20:59:53.106Z,9.34
2019-03-23T21:02:24.481Z,9.31
2019-03-23T21:04:56.015Z,9.29
2019-03-23T21:07:27.472Z,9.26
2019-03-23T21:09:58.782Z,9.18
2019-03-23T21:12:30.478Z,9.09
2019-03-23T21:15:02.080Z,9.04
2019-03-23T21:17:33.449Z,8.92
2019-03-23T21:20:05.006Z,8.98
2019-03-23T21:22:36.879Z,8.97
2019-03-23T21:25:08.712Z,8.99
2019-03-23T21:27:40.109Z,8.93
2019-03-23T21:30:13.394Z,8.97
2019-03-23T21:32:45.253Z,8.91
2019-03-23T21:35:16.954Z,8.91
2019-03-23T21:37:48.337Z,8.89
2019-03-23T21:40:19.711Z,8.73
2019-03-23T21:42:51.863Z,8.76
2019-03-23T21:45:24.233Z,8.63
2019-03-23T21:47:58.036Z,8.66
2019-03-23T21:50:29.416Z,8.51
2019-03-23T21:53:01.529Z,8.51
2019-03-23T21:55:33.178Z,8.46
2019-03-23T21:58:05.999Z,8.35
2019-03-23T22:00:37.354Z,8.38
2019-03-23T22:03:08.940Z,8.25
2019-03-23T22:05:40.464Z,8.26
2019-03-23T22:08:12.080Z,8.25
2019-03-23T22:10:43.768Z,8.26
2019-03-23T22:13:15.586Z,8.40
2019-03-23T22:15:47.644Z,8.42
2019-03-23T22:18:18.992Z,8.18
2019-03-23T22:20:50.691Z,8.11
2019-03-23T22:23:22.297Z,8.16
2019-03-23T22:25:53.993Z,8.12
2019-03-23T22:28:25.857Z,8.00
2019-03-23T22:30:57.260Z,8.05
2019-03-23T22:33:28.875Z,7.85
2019-03-23T22:36:00.266Z,7.91
2019-03-23T22:38:32.150Z,7.95
2019-03-23T22:41:03.689Z,7.88
2019-03-23T22:43:35.072Z,7.87
2019-03-23T22:46:06.792Z,7.90
2019-03-23T22:48:38.175Z,7.85
2019-03-23T22:51:09.575Z,7.84
2019-03-23T22:53:40.953Z,7.82
2019-03-23T22:56:13.658Z,7.76
2019-03-23T22:58:45.601Z,7.72
2019-03-23T23:01:17.128Z,7.61
2019-03-23T23:03:49.545Z,7.62
2019-03-23T23:06:20.971Z,7.51
2019-03-23T23:08:52.335Z,7.50
2019-03-23T23:11:23.677Z,7.50
2019-03-23T23:13:55.306Z,7.46
2019-03-23T23:16:27.167Z,7.50
2019-03-23T23:18:58.822Z,7.43
2019-03-23T23:21:30.256Z,7.25
2019-03-23T23:24:02.179Z,7.22
2019-03-23T23:26:33.950Z,7.13
2019-03-23T23:29:05.365Z,7.13
2019-03-23T23:31:37.058Z,6.99
2019-03-23T23:34:08.431Z,6.91
2019-03-23T23:36:41.191Z,6.82
2019-03-23T23:39:12.869Z,6.95
2019-03-23T23:41:44.708Z,7.08
2019-03-23T23:44:17.319Z,6.85
2019-03-23T23:46:49.516Z,6.77
2019-03-23T23:49:21.257Z,6.88
2019-03-23T23:51:52.642Z,6.94
2019-03-23T23:54:24.293Z,6.83
2019-03-23T23:56:55.713Z,6.96
2019-03-23T23:59:27.869Z,6.69
